sensor_id;sensor_type;location;lat;lon;timestamp;P1;durP1;ratioP1;P2;durP2;ratioP2
76599;SDS011;65489;52.048;6.090;2022-12-16T00:01:31;2.78;;;1.80;;
76599;SDS011;65489;52.048;6.090;2022-12-16T00:03:57;2.95;;;2.03;;
76599;SDS011;65489;52.048;6.090;2022-12-16T00:06:24;2.38;;;1.88;;
76599;SDS011;65489;52.048;6.090;2022-12-16T00:08:50;2.42;;;1.98;;
76599;SDS011;65489;52.048;6.090;2022-12-16T00:11:16;2.30;;;1.88;;
76599;SDS011;65489;52.048;6.090;2022-12-16T00:13:41;2.88;;;1.98;;
76599;SDS011;65489;52.048;6.090;2022-12-16T00:16:12;2.30;;;1.83;;
76599;SDS011;65489;52.048;6.090;2022-12-16T00:18:38;2.00;;;1.80;;
76599;SDS011;65489;52.048;6.090;2022-12-16T00:21:04;2.15;;;1.85;;
76599;SDS011;65489;52.048;6.090;2022-12-16T00:23:31;2.00;;;1.55;;
76599;SDS011;65489;52.048;6.090;2022-12-16T00:25:57;1.67;;;1.50;;
76599;SDS011;65489;52.048;6.090;2022-12-16T00:28:22;2.45;;;1.83;;
76599;SDS011;65489;52.048;6.090;2022-12-16T00:30:51;2.55;;;1.92;;
76599;SDS011;65489;52.048;6.090;2022-12-16T00:33:18;2.25;;;1.58;;
76599;SDS011;65489;52.048;6.090;2022-12-16T00:35:44;2.25;;;1.75;;
76599;SDS011;65489;52.048;6.090;2022-12-16T00:38:10;1.95;;;1.50;;
76599;SDS011;65489;52.048;6.090;2022-12-16T00:40:35;3.00;;;2.00;;
76599;SDS011;65489;52.048;6.090;2022-12-16T00:43:01;2.28;;;1.75;;
76599;SDS011;65489;52.048;6.090;2022-12-16T00:45:26;2.33;;;1.67;;
76599;SDS011;65489;52.048;6.090;2022-12-16T00:47:52;2.67;;;1.90;;
76599;SDS011;65489;52.048;6.090;2022-12-16T00:50:17;2.40;;;1.67;;
76599;SDS011;65489;52.048;6.090;2022-12-16T00:52:44;2.47;;;1.83;;
76599;SDS011;65489;52.048;6.090;2022-12-16T00:55:11;2.53;;;1.75;;
76599;SDS011;65489;52.048;6.090;2022-12-16T00:57:36;2.90;;;1.83;;
76599;SDS011;65489;52.048;6.090;2022-12-16T01:00:02;2.47;;;1.80;;
76599;SDS011;65489;52.048;6.090;2022-12-16T01:02:29;2.90;;;1.70;;
76599;SDS011;65489;52.048;6.090;2022-12-16T01:04:55;2.22;;;1.80;;
76599;SDS011;65489;52.048;6.090;2022-12-16T01:07:20;2.38;;;1.80;;
76599;SDS011;65489;52.048;6.090;2022-12-16T01:09:46;2.10;;;1.70;;
76599;SDS011;65489;52.048;6.090;2022-12-16T01:12:11;2.45;;;1.70;;
76599;SDS011;65489;52.048;6.090;2022-12-16T01:14:37;3.05;;;2.03;;
76599;SDS011;65489;52.048;6.090;2022-12-16T01:17:02;2.50;;;1.75;;
76599;SDS011;65489;52.048;6.090;2022-12-16T01:19:28;2.42;;;1.73;;
76599;SDS011;65489;52.048;6.090;2022-12-16T01:21:53;2.53;;;1.70;;
76599;SDS011;65489;52.048;6.090;2022-12-16T01:24:18;2.20;;;1.58;;
76599;SDS011;65489;52.048;6.090;2022-12-16T01:26:44;2.55;;;1.92;;
76599;SDS011;65489;52.048;6.090;2022-12-16T01:29:09;2.17;;;1.80;;
76599;SDS011;65489;52.048;6.090;2022-12-16T01:31:35;2.20;;;1.67;;
76599;SDS011;65489;52.048;6.090;2022-12-16T01:34:00;2.40;;;1.90;;
76599;SDS011;65489;52.048;6.090;2022-12-16T01:36:26;3.08;;;1.92;;
76599;SDS011;65489;52.048;6.090;2022-12-16T01:38:51;2.28;;;1.67;;
76599;SDS011;65489;52.048;6.090;2022-12-16T01:41:17;1.88;;;1.67;;
76599;SDS011;65489;52.048;6.090;2022-12-16T01:43:43;1.95;;;1.50;;
76599;SDS011;65489;52.048;6.090;2022-12-16T01:51:35;2.05;;;1.63;;
76599;SDS011;65489;52.048;6.090;2022-12-16T01:54:09;2.42;;;1.83;;
76599;SDS011;65489;52.048;6.090;2022-12-16T01:56:36;1.70;;;1.60;;
76599;SDS011;65489;52.048;6.090;2022-12-16T01:59:05;1.95;;;1.63;;
76599;SDS011;65489;52.048;6.090;2022-12-16T02:01:30;3.00;;;1.85;;
76599;SDS011;65489;52.048;6.090;2022-12-16T02:03:56;2.75;;;1.95;;
76599;SDS011;65489;52.048;6.090;2022-12-16T02:06:23;1.85;;;1.65;;
76599;SDS011;65489;52.048;6.090;2022-12-16T02:08:49;1.88;;;1.65;;
76599;SDS011;65489;52.048;6.090;2022-12-16T02:14:04;2.53;;;1.58;;
76599;SDS011;65489;52.048;6.090;2022-12-16T02:16:55;2.35;;;1.70;;
76599;SDS011;65489;52.048;6.090;2022-12-16T02:19:32;1.80;;;1.50;;
76599;SDS011;65489;52.048;6.090;2022-12-16T02:24:46;2.03;;;1.60;;
76599;SDS011;65489;52.048;6.090;2022-12-16T02:33:01;1.90;;;1.52;;
76599;SDS011;65489;52.048;6.090;2022-12-16T02:35:34;2.22;;;1.67;;
76599;SDS011;65489;52.048;6.090;2022-12-16T02:38:13;2.72;;;2.08;;
76599;SDS011;65489;52.048;6.090;2022-12-16T02:43:18;2.47;;;1.75;;
76599;SDS011;65489;52.048;6.090;2022-12-16T02:45:51;3.22;;;1.67;;
76599;SDS011;65489;52.048;6.090;2022-12-16T02:48:17;1.75;;;1.45;;
76599;SDS011;65489;52.048;6.090;2022-12-16T02:50:48;2.53;;;2.00;;
76599;SDS011;65489;52.048;6.090;2022-12-16T02:53:15;2.58;;;1.50;;
76599;SDS011;65489;52.048;6.090;2022-12-16T02:58:35;1.83;;;1.42;;
76599;SDS011;65489;52.048;6.090;2022-12-16T03:01:12;1.85;;;1.30;;
76599;SDS011;65489;52.048;6.090;2022-12-16T03:06:32;2.15;;;1.55;;
76599;SDS011;65489;52.048;6.090;2022-12-16T03:09:00;2.05;;;1.60;;
76599;SDS011;65489;52.048;6.090;2022-12-16T03:11:28;2.10;;;1.60;;
76599;SDS011;65489;52.048;6.090;2022-12-16T03:13:54;1.95;;;1.63;;
76599;SDS011;65489;52.048;6.090;2022-12-16T03:16:21;2.13;;;1.67;;
76599;SDS011;65489;52.048;6.090;2022-12-16T03:18:51;2.30;;;1.80;;
76599;SDS011;65489;52.048;6.090;2022-12-16T03:21:19;1.98;;;1.45;;
76599;SDS011;65489;52.048;6.090;2022-12-16T03:23:47;2.63;;;1.70;;
76599;SDS011;65489;52.048;6.090;2022-12-16T03:26:18;1.88;;;1.58;;
76599;SDS011;65489;52.048;6.090;2022-12-16T03:29:35;2.03;;;1.70;;
76599;SDS011;65489;52.048;6.090;2022-12-16T03:31:57;1.90;;;1.63;;
76599;SDS011;65489;52.048;6.090;2022-12-16T03:36:55;2.03;;;1.60;;
76599;SDS011;65489;52.048;6.090;2022-12-16T03:39:28;1.88;;;1.65;;
76599;SDS011;65489;52.048;6.090;2022-12-16T03:41:54;2.30;;;1.60;;
76599;SDS011;65489;52.048;6.090;2022-12-16T03:44:20;2.10;;;1.67;;
76599;SDS011;65489;52.048;6.090;2022-12-16T03:46:47;2.03;;;1.48;;
76599;SDS011;65489;52.048;6.090;2022-12-16T03:49:13;2.38;;;1.70;;
76599;SDS011;65489;52.048;6.090;2022-12-16T03:51:38;2.22;;;1.63;;
76599;SDS011;65489;52.048;6.090;2022-12-16T03:54:04;2.40;;;1.73;;
76599;SDS011;65489;52.048;6.090;2022-12-16T03:56:29;3.08;;;1.70;;
76599;SDS011;65489;52.048;6.090;2022-12-16T03:58:54;2.97;;;1.80;;
76599;SDS011;65489;52.048;6.090;2022-12-16T04:01:20;1.95;;;1.58;;
76599;SDS011;65489;52.048;6.090;2022-12-16T04:03:47;2.72;;;1.98;;
76599;SDS011;65489;52.048;6.090;2022-12-16T04:06:12;1.75;;;1.52;;
76599;SDS011;65489;52.048;6.090;2022-12-16T04:08:42;2.55;;;1.63;;
76599;SDS011;65489;52.048;6.090;2022-12-16T04:11:11;1.95;;;1.70;;
76599;SDS011;65489;52.048;6.090;2022-12-16T04:13:56;2.88;;;1.90;;
76599;SDS011;65489;52.048;6.090;2022-12-16T04:16:40;1.80;;;1.50;;
76599;SDS011;65489;52.048;6.090;2022-12-16T04:19:25;2.30;;;1.77;;
76599;SDS011;65489;52.048;6.090;2022-12-16T04:22:12;2.10;;;1.65;;
76599;SDS011;65489;52.048;6.090;2022-12-16T04:24:59;2.20;;;1.65;;
76599;SDS011;65489;52.048;6.090;2022-12-16T04:27:27;2.70;;;1.77;;
76599;SDS011;65489;52.048;6.090;2022-12-16T04:29:53;2.90;;;1.98;;
76599;SDS011;65489;52.048;6.090;2022-12-16T04:32:37;1.90;;;1.70;;
76599;SDS011;65489;52.048;6.090;2022-12-16T04:35:21;2.55;;;1.80;;
76599;SDS011;65489;52.048;6.090;2022-12-16T04:38:06;2.72;;;1.83;;
76599;SDS011;65489;52.048;6.090;2022-12-16T04:40:50;2.50;;;1.80;;
76599;SDS011;65489;52.048;6.090;2022-12-16T04:43:34;3.35;;;1.98;;
76599;SDS011;65489;52.048;6.090;2022-12-16T04:46:18;2.55;;;1.77;;
76599;SDS011;65489;52.048;6.090;2022-12-16T04:49:01;2.47;;;1.80;;
76599;SDS011;65489;52.048;6.090;2022-12-16T04:51:46;2.13;;;1.77;;
76599;SDS011;65489;52.048;6.090;2022-12-16T04:54:30;3.15;;;1.90;;
76599;SDS011;65489;52.048;6.090;2022-12-16T04:57:13;2.60;;;1.80;;
76599;SDS011;65489;52.048;6.090;2022-12-16T04:59:57;2.50;;;1.80;;
76599;SDS011;65489;52.048;6.090;2022-12-16T05:02:41;2.67;;;1.83;;
76599;SDS011;65489;52.048;6.090;2022-12-16T05:05:25;2.28;;;1.75;;
76599;SDS011;65489;52.048;6.090;2022-12-16T05:08:08;2.65;;;1.83;;
76599;SDS011;65489;52.048;6.090;2022-12-16T05:10:52;2.42;;;1.80;;
76599;SDS011;65489;52.048;6.090;2022-12-16T05:13:36;2.83;;;1.80;;
76599;SDS011;65489;52.048;6.090;2022-12-16T05:16:20;2.63;;;1.70;;
76599;SDS011;65489;52.048;6.090;2022-12-16T05:19:04;2.65;;;2.00;;
76599;SDS011;65489;52.048;6.090;2022-12-16T05:21:48;3.08;;;2.00;;
76599;SDS011;65489;52.048;6.090;2022-12-16T05:24:32;2.22;;;1.65;;
76599;SDS011;65489;52.048;6.090;2022-12-16T05:29:46;3.15;;;1.80;;
76599;SDS011;65489;52.048;6.090;2022-12-16T05:32:30;2.63;;;1.65;;
76599;SDS011;65489;52.048;6.090;2022-12-16T05:35:14;2.63;;;1.80;;
76599;SDS011;65489;52.048;6.090;2022-12-16T05:37:58;2.63;;;1.77;;
76599;SDS011;65489;52.048;6.090;2022-12-16T05:40:42;3.60;;;1.95;;
76599;SDS011;65489;52.048;6.090;2022-12-16T05:43:25;2.78;;;2.08;;
76599;SDS011;65489;52.048;6.090;2022-12-16T05:46:09;2.90;;;2.00;;
76599;SDS011;65489;52.048;6.090;2022-12-16T05:48:53;2.83;;;2.03;;
76599;SDS011;65489;52.048;6.090;2022-12-16T05:51:37;2.33;;;1.70;;
76599;SDS011;65489;52.048;6.090;2022-12-16T05:54:21;2.63;;;1.65;;
76599;SDS011;65489;52.048;6.090;2022-12-16T05:57:05;3.10;;;2.00;;
76599;SDS011;65489;52.048;6.090;2022-12-16T05:59:48;2.72;;;2.00;;
76599;SDS011;65489;52.048;6.090;2022-12-16T06:02:36;3.08;;;2.00;;
76599;SDS011;65489;52.048;6.090;2022-12-16T06:05:21;2.47;;;2.05;;
76599;SDS011;65489;52.048;6.090;2022-12-16T06:08:04;1.85;;;1.52;;
76599;SDS011;65489;52.048;6.090;2022-12-16T06:10:48;2.97;;;1.70;;
76599;SDS011;65489;52.048;6.090;2022-12-16T06:13:32;1.83;;;1.40;;
76599;SDS011;65489;52.048;6.090;2022-12-16T06:16:16;2.58;;;1.40;;
76599;SDS011;65489;52.048;6.090;2022-12-16T06:19:00;2.33;;;1.50;;
76599;SDS011;65489;52.048;6.090;2022-12-16T06:21:44;2.03;;;1.35;;
76599;SDS011;65489;52.048;6.090;2022-12-16T06:24:28;2.00;;;1.33;;
76599;SDS011;65489;52.048;6.090;2022-12-16T06:27:11;1.77;;;1.30;;
76599;SDS011;65489;52.048;6.090;2022-12-16T06:29:55;1.77;;;1.27;;
76599;SDS011;65489;52.048;6.090;2022-12-16T06:32:39;1.52;;;0.90;;
76599;SDS011;65489;52.048;6.090;2022-12-16T06:35:25;1.90;;;1.40;;
76599;SDS011;65489;52.048;6.090;2022-12-16T06:38:08;1.27;;;0.93;;
76599;SDS011;65489;52.048;6.090;2022-12-16T06:40:52;1.80;;;1.13;;
76599;SDS011;65489;52.048;6.090;2022-12-16T06:43:36;1.73;;;1.15;;
76599;SDS011;65489;52.048;6.090;2022-12-16T06:46:20;2.08;;;1.25;;
76599;SDS011;65489;52.048;6.090;2022-12-16T06:49:11;2.45;;;1.50;;
76599;SDS011;65489;52.048;6.090;2022-12-16T06:51:55;2.17;;;1.45;;
76599;SDS011;65489;52.048;6.090;2022-12-16T06:54:39;1.77;;;1.23;;
76599;SDS011;65489;52.048;6.090;2022-12-16T06:57:22;1.58;;;1.27;;
76599;SDS011;65489;52.048;6.090;2022-12-16T07:00:06;1.50;;;1.20;;
76599;SDS011;65489;52.048;6.090;2022-12-16T07:02:51;2.63;;;1.35;;
76599;SDS011;65489;52.048;6.090;2022-12-16T07:05:36;2.42;;;1.33;;
76599;SDS011;65489;52.048;6.090;2022-12-16T07:08:20;2.83;;;1.40;;
76599;SDS011;65489;52.048;6.090;2022-12-16T07:11:04;2.85;;;1.67;;
76599;SDS011;65489;52.048;6.090;2022-12-16T07:13:48;2.85;;;1.73;;
76599;SDS011;65489;52.048;6.090;2022-12-16T07:16:31;2.03;;;1.35;;
76599;SDS011;65489;52.048;6.090;2022-12-16T07:19:15;1.92;;;1.15;;
76599;SDS011;65489;52.048;6.090;2022-12-16T07:21:59;1.30;;;1.10;;
76599;SDS011;65489;52.048;6.090;2022-12-16T07:24:43;1.65;;;1.20;;
76599;SDS011;65489;52.048;6.090;2022-12-16T07:27:26;1.83;;;1.08;;
76599;SDS011;65489;52.048;6.090;2022-12-16T07:30:10;1.60;;;0.90;;
76599;SDS011;65489;52.048;6.090;2022-12-16T07:32:54;2.28;;;1.30;;
76599;SDS011;65489;52.048;6.090;2022-12-16T07:35:41;2.33;;;1.35;;
76599;SDS011;65489;52.048;6.090;2022-12-16T07:38:25;2.35;;;1.30;;
76599;SDS011;65489;52.048;6.090;2022-12-16T07:41:08;1.33;;;0.95;;
76599;SDS011;65489;52.048;6.090;2022-12-16T07:43:52;2.85;;;1.45;;
76599;SDS011;65489;52.048;6.090;2022-12-16T07:46:36;1.60;;;1.30;;
76599;SDS011;65489;52.048;6.090;2022-12-16T07:49:20;1.70;;;1.33;;
76599;SDS011;65489;52.048;6.090;2022-12-16T07:52:04;1.45;;;1.27;;
76599;SDS011;65489;52.048;6.090;2022-12-16T07:54:47;1.95;;;1.13;;
76599;SDS011;65489;52.048;6.090;2022-12-16T07:57:31;2.25;;;1.52;;
76599;SDS011;65489;52.048;6.090;2022-12-16T08:00:15;2.20;;;1.38;;
76599;SDS011;65489;52.048;6.090;2022-12-16T08:02:59;1.90;;;1.40;;
76599;SDS011;65489;52.048;6.090;2022-12-16T08:05:43;1.55;;;1.33;;
76599;SDS011;65489;52.048;6.090;2022-12-16T08:08:27;1.98;;;1.27;;
76599;SDS011;65489;52.048;6.090;2022-12-16T08:11:10;2.42;;;1.45;;
76599;SDS011;65489;52.048;6.090;2022-12-16T08:13:54;2.00;;;1.35;;
76599;SDS011;65489;52.048;6.090;2022-12-16T08:16:38;4.60;;;1.85;;
76599;SDS011;65489;52.048;6.090;2022-12-16T08:19:22;2.55;;;1.77;;
76599;SDS011;65489;52.048;6.090;2022-12-16T08:22:06;2.30;;;1.70;;
76599;SDS011;65489;52.048;6.090;2022-12-16T08:24:50;2.10;;;1.70;;
76599;SDS011;65489;52.048;6.090;2022-12-16T08:27:34;2.63;;;1.60;;
76599;SDS011;65489;52.048;6.090;2022-12-16T08:30:18;3.00;;;1.80;;
76599;SDS011;65489;52.048;6.090;2022-12-16T08:33:01;2.83;;;1.98;;
76599;SDS011;65489;52.048;6.090;2022-12-16T08:35:46;2.42;;;1.58;;
76599;SDS011;65489;52.048;6.090;2022-12-16T08:38:30;2.88;;;1.77;;
76599;SDS011;65489;52.048;6.090;2022-12-16T08:41:14;4.70;;;1.80;;
76599;SDS011;65489;52.048;6.090;2022-12-16T08:43:58;2.15;;;1.70;;
76599;SDS011;65489;52.048;6.090;2022-12-16T08:46:41;3.33;;;1.77;;
76599;SDS011;65489;52.048;6.090;2022-12-16T08:49:25;2.47;;;1.77;;
76599;SDS011;65489;52.048;6.090;2022-12-16T08:52:09;2.42;;;1.75;;
76599;SDS011;65489;52.048;6.090;2022-12-16T08:54:53;2.25;;;1.52;;
76599;SDS011;65489;52.048;6.090;2022-12-16T08:57:37;2.80;;;1.92;;
76599;SDS011;65489;52.048;6.090;2022-12-16T09:00:21;2.05;;;1.38;;
76599;SDS011;65489;52.048;6.090;2022-12-16T09:03:05;2.63;;;1.70;;
76599;SDS011;65489;52.048;6.090;2022-12-16T09:05:48;1.60;;;1.30;;
76599;SDS011;65489;52.048;6.090;2022-12-16T09:08:32;1.73;;;1.30;;
76599;SDS011;65489;52.048;6.090;2022-12-16T09:11:17;2.80;;;1.77;;
76599;SDS011;65489;52.048;6.090;2022-12-16T09:14:00;5.72;;;1.70;;
76599;SDS011;65489;52.048;6.090;2022-12-16T09:16:44;3.97;;;1.55;;
76599;SDS011;65489;52.048;6.090;2022-12-16T09:19:28;3.03;;;1.73;;
76599;SDS011;65489;52.048;6.090;2022-12-16T09:22:12;2.28;;;1.55;;
76599;SDS011;65489;52.048;6.090;2022-12-16T09:25:10;2.07;;;1.37;;
76599;SDS011;65489;52.048;6.090;2022-12-16T09:27:54;2.30;;;1.55;;
76599;SDS011;65489;52.048;6.090;2022-12-16T09:30:38;3.63;;;1.52;;
76599;SDS011;65489;52.048;6.090;2022-12-16T09:33:21;1.98;;;1.35;;
76599;SDS011;65489;52.048;6.090;2022-12-16T09:36:05;2.75;;;1.58;;
76599;SDS011;65489;52.048;6.090;2022-12-16T09:38:49;2.15;;;1.48;;
76599;SDS011;65489;52.048;6.090;2022-12-16T09:41:40;2.10;;;1.45;;
76599;SDS011;65489;52.048;6.090;2022-12-16T09:50:37;2.10;;;1.58;;
76599;SDS011;65489;52.048;6.090;2022-12-16T09:53:23;2.38;;;1.50;;
76599;SDS011;65489;52.048;6.090;2022-12-16T09:56:13;2.42;;;1.60;;
76599;SDS011;65489;52.048;6.090;2022-12-16T09:59:00;2.05;;;1.30;;
76599;SDS011;65489;52.048;6.090;2022-12-16T10:01:47;3.33;;;1.67;;
76599;SDS011;65489;52.048;6.090;2022-12-16T10:04:33;2.22;;;1.80;;
76599;SDS011;65489;52.048;6.090;2022-12-16T10:07:17;2.38;;;1.50;;
76599;SDS011;65489;52.048;6.090;2022-12-16T10:10:23;1.98;;;1.38;;
76599;SDS011;65489;52.048;6.090;2022-12-16T10:13:30;2.13;;;1.38;;
76599;SDS011;65489;52.048;6.090;2022-12-16T10:19:43;2.45;;;1.83;;
76599;SDS011;65489;52.048;6.090;2022-12-16T10:22:32;1.95;;;1.40;;
76599;SDS011;65489;52.048;6.090;2022-12-16T10:25:28;3.85;;;1.73;;
76599;SDS011;65489;52.048;6.090;2022-12-16T10:28:17;2.63;;;1.65;;
76599;SDS011;65489;52.048;6.090;2022-12-16T10:31:11;2.67;;;1.90;;
76599;SDS011;65489;52.048;6.090;2022-12-16T10:33:56;2.00;;;1.52;;
76599;SDS011;65489;52.048;6.090;2022-12-16T10:36:40;2.35;;;1.70;;
76599;SDS011;65489;52.048;6.090;2022-12-16T10:39:26;2.00;;;1.50;;
76599;SDS011;65489;52.048;6.090;2022-12-16T10:42:26;1.33;;;1.15;;
76599;SDS011;65489;52.048;6.090;2022-12-16T10:48:11;2.40;;;1.67;;
76599;SDS011;65489;52.048;6.090;2022-12-16T10:50:57;3.08;;;1.42;;
76599;SDS011;65489;52.048;6.090;2022-12-16T10:53:42;1.95;;;1.60;;
76599;SDS011;65489;52.048;6.090;2022-12-16T10:56:44;2.75;;;1.70;;
76599;SDS011;65489;52.048;6.090;2022-12-16T10:59:36;1.98;;;1.45;;
76599;SDS011;65489;52.048;6.090;2022-12-16T11:02:23;3.30;;;1.55;;
76599;SDS011;65489;52.048;6.090;2022-12-16T11:08:31;3.35;;;1.80;;
76599;SDS011;65489;52.048;6.090;2022-12-16T11:11:24;2.72;;;1.67;;
76599;SDS011;65489;52.048;6.090;2022-12-16T11:20:07;3.70;;;2.00;;
76599;SDS011;65489;52.048;6.090;2022-12-16T11:29:11;7.32;;;3.75;;
76599;SDS011;65489;52.048;6.090;2022-12-16T11:32:00;12.07;;;5.68;;
76599;SDS011;65489;52.048;6.090;2022-12-16T11:34:49;14.10;;;6.45;;
76599;SDS011;65489;52.048;6.090;2022-12-16T11:37:35;16.10;;;7.47;;
76599;SDS011;65489;52.048;6.090;2022-12-16T11:40:21;14.73;;;7.57;;
76599;SDS011;65489;52.048;6.090;2022-12-16T11:43:07;16.45;;;8.43;;
76599;SDS011;65489;52.048;6.090;2022-12-16T11:45:53;17.77;;;8.15;;
76599;SDS011;65489;52.048;6.090;2022-12-16T11:51:31;15.60;;;7.97;;
76599;SDS011;65489;52.048;6.090;2022-12-16T11:54:17;15.65;;;7.85;;
76599;SDS011;65489;52.048;6.090;2022-12-16T11:57:05;16.27;;;7.70;;
76599;SDS011;65489;52.048;6.090;2022-12-16T11:59:51;18.27;;;8.00;;
76599;SDS011;65489;52.048;6.090;2022-12-16T12:03:19;16.58;;;7.82;;
76599;SDS011;65489;52.048;6.090;2022-12-16T12:11:52;15.60;;;7.18;;
76599;SDS011;65489;52.048;6.090;2022-12-16T12:17:40;15.32;;;6.57;;
76599;SDS011;65489;52.048;6.090;2022-12-16T12:20:46;13.02;;;7.18;;
76599;SDS011;65489;52.048;6.090;2022-12-16T12:23:39;14.43;;;6.85;;
76599;SDS011;65489;52.048;6.090;2022-12-16T12:26:53;14.77;;;6.55;;
76599;SDS011;65489;52.048;6.090;2022-12-16T12:32:51;12.02;;;6.15;;
76599;SDS011;65489;52.048;6.090;2022-12-16T12:41:54;11.90;;;5.57;;
76599;SDS011;65489;52.048;6.090;2022-12-16T12:45:02;10.73;;;5.88;;
76599;SDS011;65489;52.048;6.090;2022-12-16T12:48:14;12.32;;;5.43;;
76599;SDS011;65489;52.048;6.090;2022-12-16T12:51:04;11.35;;;5.53;;
76599;SDS011;65489;52.048;6.090;2022-12-16T12:56:49;10.07;;;5.70;;
76599;SDS011;65489;52.048;6.090;2022-12-16T13:02:23;11.38;;;5.35;;
76599;SDS011;65489;52.048;6.090;2022-12-16T13:05:10;11.10;;;5.57;;
76599;SDS011;65489;52.048;6.090;2022-12-16T13:08:04;10.95;;;5.50;;
76599;SDS011;65489;52.048;6.090;2022-12-16T13:11:18;9.27;;;4.65;;
76599;SDS011;65489;52.048;6.090;2022-12-16T13:14:11;8.15;;;4.47;;
76599;SDS011;65489;52.048;6.090;2022-12-16T13:17:16;9.50;;;5.03;;
76599;SDS011;65489;52.048;6.090;2022-12-16T13:20:00;8.40;;;4.78;;
76599;SDS011;65489;52.048;6.090;2022-12-16T13:22:44;8.68;;;4.32;;
76599;SDS011;65489;52.048;6.090;2022-12-16T13:25:49;8.18;;;4.40;;
76599;SDS011;65489;52.048;6.090;2022-12-16T13:28:35;8.13;;;4.30;;
76599;SDS011;65489;52.048;6.090;2022-12-16T13:31:21;9.85;;;4.35;;
76599;SDS011;65489;52.048;6.090;2022-12-16T13:34:27;10.07;;;4.55;;
76599;SDS011;65489;52.048;6.090;2022-12-16T13:37:43;8.35;;;4.22;;
76599;SDS011;65489;52.048;6.090;2022-12-16T13:40:21;7.55;;;3.72;;
76599;SDS011;65489;52.048;6.090;2022-12-16T13:43:16;7.68;;;4.00;;
76599;SDS011;65489;52.048;6.090;2022-12-16T13:46:47;6.97;;;4.00;;
76599;SDS011;65489;52.048;6.090;2022-12-16T13:55:47;6.28;;;3.58;;
76599;SDS011;65489;52.048;6.090;2022-12-16T13:58:38;8.27;;;4.30;;
76599;SDS011;65489;52.048;6.090;2022-12-16T14:01:30;6.28;;;3.40;;
76599;SDS011;65489;52.048;6.090;2022-12-16T14:04:25;6.93;;;3.70;;
76599;SDS011;65489;52.048;6.090;2022-12-16T14:07:17;5.55;;;3.30;;
76599;SDS011;65489;52.048;6.090;2022-12-16T14:10:04;5.45;;;3.33;;
76599;SDS011;65489;52.048;6.090;2022-12-16T14:12:52;5.82;;;3.28;;
76599;SDS011;65489;52.048;6.090;2022-12-16T14:16:05;6.13;;;3.40;;
76599;SDS011;65489;52.048;6.090;2022-12-16T14:19:00;6.47;;;3.67;;
76599;SDS011;65489;52.048;6.090;2022-12-16T14:21:50;5.68;;;3.05;;
76599;SDS011;65489;52.048;6.090;2022-12-16T14:24:37;5.35;;;3.10;;
76599;SDS011;65489;52.048;6.090;2022-12-16T14:27:21;5.82;;;3.10;;
76599;SDS011;65489;52.048;6.090;2022-12-16T14:30:17;5.97;;;2.90;;
76599;SDS011;65489;52.048;6.090;2022-12-16T14:33:15;6.47;;;3.08;;
76599;SDS011;65489;52.048;6.090;2022-12-16T14:35:59;5.63;;;3.13;;
76599;SDS011;65489;52.048;6.090;2022-12-16T14:38:46;5.82;;;3.05;;
76599;SDS011;65489;52.048;6.090;2022-12-16T14:41:30;7.18;;;3.42;;
76599;SDS011;65489;52.048;6.090;2022-12-16T14:44:16;5.78;;;2.90;;
76599;SDS011;65489;52.048;6.090;2022-12-16T14:47:01;4.30;;;2.80;;
76599;SDS011;65489;52.048;6.090;2022-12-16T14:49:47;5.85;;;3.08;;
76599;SDS011;65489;52.048;6.090;2022-12-16T18:32:01;7.85;;;3.10;;
76599;SDS011;65489;52.048;6.090;2022-12-16T18:34:45;6.63;;;2.67;;
76599;SDS011;65489;52.048;6.090;2022-12-16T18:37:29;6.63;;;2.78;;
76599;SDS011;65489;52.048;6.090;2022-12-16T18:40:13;7.28;;;2.92;;
76599;SDS011;65489;52.048;6.090;2022-12-16T18:42:57;5.05;;;2.75;;
76599;SDS011;65489;52.048;6.090;2022-12-16T18:45:41;6.68;;;3.22;;
76599;SDS011;65489;52.048;6.090;2022-12-16T18:48:25;6.45;;;2.90;;
76599;SDS011;65489;52.048;6.090;2022-12-16T18:51:09;5.00;;;3.00;;
76599;SDS011;65489;52.048;6.090;2022-12-16T18:53:53;4.88;;;2.22;;
76599;SDS011;65489;52.048;6.090;2022-12-16T18:56:37;5.32;;;2.70;;
76599;SDS011;65489;52.048;6.090;2022-12-16T18:59:21;5.00;;;2.60;;
76599;SDS011;65489;52.048;6.090;2022-12-16T19:02:05;4.13;;;2.42;;
76599;SDS011;65489;52.048;6.090;2022-12-16T19:04:49;5.68;;;2.60;;
76599;SDS011;65489;52.048;6.090;2022-12-16T19:07:32;5.43;;;2.35;;
76599;SDS011;65489;52.048;6.090;2022-12-16T19:10:16;7.57;;;3.00;;
76599;SDS011;65489;52.048;6.090;2022-12-16T19:13:00;6.68;;;3.33;;
76599;SDS011;65489;52.048;6.090;2022-12-16T19:15:56;4.88;;;2.50;;
76599;SDS011;65489;52.048;6.090;2022-12-16T19:18:40;5.22;;;2.78;;
76599;SDS011;65489;52.048;6.090;2022-12-16T19:21:25;4.60;;;2.47;;
76599;SDS011;65489;52.048;6.090;2022-12-16T19:24:09;5.82;;;2.85;;
76599;SDS011;65489;52.048;6.090;2022-12-16T19:26:52;5.28;;;2.63;;
76599;SDS011;65489;52.048;6.090;2022-12-16T19:29:37;5.75;;;2.70;;
76599;SDS011;65489;52.048;6.090;2022-12-16T19:32:21;5.10;;;2.80;;
76599;SDS011;65489;52.048;6.090;2022-12-16T19:35:05;8.07;;;2.45;;
76599;SDS011;65489;52.048;6.090;2022-12-16T19:37:49;4.18;;;2.47;;
76599;SDS011;65489;52.048;6.090;2022-12-16T19:40:33;5.30;;;2.50;;
76599;SDS011;65489;52.048;6.090;2022-12-16T19:43:17;3.95;;;2.40;;
76599;SDS011;65489;52.048;6.090;2022-12-16T19:46:03;4.25;;;2.40;;
76599;SDS011;65489;52.048;6.090;2022-12-16T19:48:47;3.92;;;2.33;;
76599;SDS011;65489;52.048;6.090;2022-12-16T19:51:32;5.68;;;2.50;;
76599;SDS011;65489;52.048;6.090;2022-12-16T19:54:16;4.10;;;2.28;;
76599;SDS011;65489;52.048;6.090;2022-12-16T19:57:00;5.13;;;2.70;;
76599;SDS011;65489;52.048;6.090;2022-12-16T19:59:45;3.25;;;2.10;;
76599;SDS011;65489;52.048;6.090;2022-12-16T20:02:46;4.72;;;2.40;;
76599;SDS011;65489;52.048;6.090;2022-12-16T20:05:31;3.83;;;2.33;;
76599;SDS011;65489;52.048;6.090;2022-12-16T20:08:14;4.13;;;2.33;;
76599;SDS011;65489;52.048;6.090;2022-12-16T20:11:02;4.13;;;2.33;;
76599;SDS011;65489;52.048;6.090;2022-12-16T20:13:51;3.65;;;2.20;;
76599;SDS011;65489;52.048;6.090;2022-12-16T20:16:36;5.43;;;2.53;;
76599;SDS011;65489;52.048;6.090;2022-12-16T20:19:21;3.80;;;2.15;;
76599;SDS011;65489;52.048;6.090;2022-12-16T20:22:05;3.13;;;2.13;;
76599;SDS011;65489;52.048;6.090;2022-12-16T20:24:48;3.25;;;2.17;;
76599;SDS011;65489;52.048;6.090;2022-12-16T20:27:32;3.58;;;2.22;;
76599;SDS011;65489;52.048;6.090;2022-12-16T20:30:16;4.40;;;2.20;;
76599;SDS011;65489;52.048;6.090;2022-12-16T20:33:00;4.03;;;2.20;;
76599;SDS011;65489;52.048;6.090;2022-12-16T20:35:53;3.05;;;2.00;;
76599;SDS011;65489;52.048;6.090;2022-12-16T20:38:41;4.03;;;2.53;;
76599;SDS011;65489;52.048;6.090;2022-12-16T20:41:28;6.57;;;2.08;;
76599;SDS011;65489;52.048;6.090;2022-12-16T20:44:12;3.80;;;2.42;;
76599;SDS011;65489;52.048;6.090;2022-12-16T20:46:56;2.50;;;1.88;;
76599;SDS011;65489;52.048;6.090;2022-12-16T20:49:40;3.67;;;2.22;;
76599;SDS011;65489;52.048;6.090;2022-12-16T20:52:24;3.90;;;2.22;;
76599;SDS011;65489;52.048;6.090;2022-12-16T20:55:08;2.72;;;1.92;;
76599;SDS011;65489;52.048;6.090;2022-12-16T20:57:52;3.33;;;2.10;;
76599;SDS011;65489;52.048;6.090;2022-12-16T21:00:35;2.53;;;1.88;;
76599;SDS011;65489;52.048;6.090;2022-12-16T21:03:19;3.85;;;2.15;;
76599;SDS011;65489;52.048;6.090;2022-12-16T21:06:03;3.15;;;2.00;;
76599;SDS011;65489;52.048;6.090;2022-12-16T21:08:48;3.00;;;2.10;;
76599;SDS011;65489;52.048;6.090;2022-12-16T21:11:31;3.55;;;2.08;;
76599;SDS011;65489;52.048;6.090;2022-12-16T21:14:15;6.05;;;2.20;;
76599;SDS011;65489;52.048;6.090;2022-12-16T21:16:59;3.25;;;1.85;;
76599;SDS011;65489;52.048;6.090;2022-12-16T21:19:43;3.70;;;1.95;;
76599;SDS011;65489;52.048;6.090;2022-12-16T21:22:27;3.13;;;1.88;;
76599;SDS011;65489;52.048;6.090;2022-12-16T21:25:11;3.08;;;2.03;;